Time,TemperatureF,DewpointF,PressureIn,WindDirection,WindDirectionDegrees,WindSpeedMPH,WindSpeedGustMPH,Humidity,HourlyPrecipIn,Conditions,Clouds,dailyrainin,SolarRadiationWatts/m^2,SoftwareType,DateUTC
2013-10-11 00:01:00,59.9,58.2,29.84,NNE,19,1.0,5.0,94,0.00,,,0.45,0.00,VWS V14.01,2013-10-11 04:01:00,
2013-10-11 00:02:00,59.9,58.2,29.84,North,356,2.0,5.0,94,0.00,,,0.45,0.00,VWS V14.01,2013-10-11 04:02:00,
2013-10-11 00:07:00,59.9,58.2,29.84,North,7,4.0,4.0,94,0.00,,,0.00,0.00,VWS V14.01,2013-10-11 04:07:00,
2013-10-11 00:13:00,59.9,58.2,29.84,North,0,4.0,5.0,94,0.00,,,0.00,0.00,VWS V14.01,2013-10-11 04:13:00,
2013-10-11 00:18:00,59.9,58.2,29.83,North,10,2.0,3.0,94,0.00,,,0.00,0.00,VWS V14.01,2013-10-11 04:18:00,
2013-10-11 00:23:00,59.9,58.2,29.83,NNE,23,6.0,6.0,94,0.00,,,0.00,0.00,VWS V14.01,2013-10-11 04:23:00,
2013-10-11 00:28:00,59.9,58.2,29.83,NNE,30,0.0,1.0,94,0.00,,,0.00,0.00,VWS V14.01,2013-10-11 04:28:00,
2013-10-11 00:33:00,59.9,58.2,29.83,North,358,5.0,5.0,94,0.00,,,0.00,0.00,VWS V14.01,2013-10-11 04:33:00,
2013-10-11 00:38:00,59.9,58.2,29.83,North,350,0.0,0.0,94,0.00,,,0.00,0.00,VWS V14.01,2013-10-11 04:38:00,
2013-10-11 00:43:00,59.8,58.1,29.83,NNW,348,3.0,3.0,94,0.00,,,0.00,0.00,VWS V14.01,2013-10-11 04:43:00,
2013-10-11 00:49:00,59.8,58.1,29.82,NW,326,2.0,6.0,94,0.00,,,0.00,0.00,VWS V14.01,2013-10-11 04:49:00,
2013-10-11 00:54:00,59.8,58.1,29.82,NNW,340,0.0,0.0,94,0.00,,,0.00,0.00,VWS V14.01,2013-10-11 04:54:00,
2013-10-11 00:59:00,59.8,58.4,29.82,North,9,0.0,0.0,95,0.00,,,0.00,0.00,VWS V14.01,2013-10-11 04:59:00,
2013-10-11 01:04:00,59.8,58.4,29.82,North,358,5.0,7.0,95,0.00,,,0.00,0.00,VWS V14.01,2013-10-11 05:04:00,
2013-10-11 01:09:00,59.8,58.4,29.82,North,1,0.0,6.0,95,0.00,,,0.00,0.00,VWS V14.01,2013-10-11 05:09:00,
2013-10-11 01:14:00,59.8,58.4,29.82,NNE,18,3.0,5.0,95,0.00,,,0.00,0.00,VWS V14.01,2013-10-11 05:14:00,
2013-10-11 01:19:00,59.8,58.4,29.82,North,1,0.0,0.0,95,0.00,,,0.00,0.00,VWS V14.01,2013-10-11 05:19:00,
2013-10-11 01:24:00,59.8,58.4,29.82,North,358,0.0,0.0,95,0.00,,,0.00,0.00,VWS V14.01,2013-10-11 05:24:00,
2013-10-11 01:29:00,59.8,58.4,29.82,NNW,345,3.0,3.0,95,0.00,,,0.00,0.00,VWS V14.01,2013-10-11 05:29:00,
2013-10-11 01:34:00,59.8,58.4,29.82,North,358,3.0,7.0,95,0.00,,,0.00,0.00,VWS V14.01,2013-10-11 05:34:00,
2013-10-11 01:40:00,59.8,58.4,29.82,NNW,345,2.0,3.0,95,0.00,,,0.00,0.00,VWS V14.01,2013-10-11 05:40:00,
2013-10-11 01:45:00,59.8,58.4,29.82,North,354,0.0,0.0,95,0.00,,,0.00,0.00,VWS V14.01,2013-10-11 05:45:00,
2013-10-11 01:50:00,59.8,58.4,29.82,North,11,2.0,8.0,95,0.00,,,0.00,0.00,VWS V14.01,2013-10-11 05:50:00,
2013-10-11 01:55:00,59.8,58.4,29.82,North,358,5.0,7.0,95,0.00,,,0.00,0.00,VWS V14.01,2013-10-11 05:55:00,
2013-10-11 02:00:00,59.8,58.4,29.82,NNW,335,3.0,3.0,95,0.00,,,0.00,0.00,VWS V14.01,2013-10-11 06:00:00,
2013-10-11 02:05:00,59.8,58.4,29.82,North,358,4.0,4.0,95,0.00,,,0.00,0.00,VWS V14.01,2013-10-11 06:05:00,
2013-10-11 02:10:00,59.8,58.4,29.82,North,358,4.0,4.0,95,0.00,,,0.00,0.00,VWS V14.01,2013-10-11 06:10:00,
2013-10-11 02:15:00,59.9,58.5,29.82,North,352,0.0,0.0,95,0.00,,,0.00,0.00,VWS V14.01,2013-10-11 06:15:00,
2013-10-11 02:20:00,59.9,58.5,29.82,NNE,17,3.0,5.0,95,0.00,,,0.00,0.00,VWS V14.01,2013-10-11 06:20:00,
2013-10-11 02:26:00,59.9,58.5,29.82,NNW,327,0.0,3.0,95,0.00,,,0.00,0.00,VWS V14.01,2013-10-11 06:26:00,
2013-10-11 02:31:00,59.9,58.5,29.82,North,0,5.0,5.0,95,0.00,,,0.00,0.00,VWS V14.01,2013-10-11 06:31:00,
2013-10-11 02:36:00,59.9,58.5,29.82,North,358,3.0,5.0,95,0.00,,,0.00,0.00,VWS V14.01,2013-10-11 06:36:00,
2013-10-11 02:41:00,59.9,58.5,29.82,North,358,2.0,2.0,95,0.00,,,0.00,0.00,VWS V14.01,2013-10-11 06:41:00,
2013-10-11 02:46:00,59.9,58.5,29.82,North,0,0.0,0.0,95,0.00,,,0.00,0.00,VWS V14.01,2013-10-11 06:46:00,
2013-10-11 02:51:00,59.9,58.5,29.82,North,0,0.0,0.0,95,0.00,,,0.00,0.00,VWS V14.01,2013-10-11 06:51:00,
2013-10-11 02:56:00,59.9,58.5,29.82,NNW,335,5.0,5.0,95,0.00,,,0.00,0.00,VWS V14.01,2013-10-11 06:56:00,
2013-10-11 03:01:00,59.9,58.5,29.82,NNW,338,0.0,4.0,95,0.00,,,0.00,0.00,VWS V14.01,2013-10-11 07:01:00,
2013-10-11 03:06:00,59.9,58.5,29.81,North,358,0.0,3.0,95,0.00,,,0.00,0.00,VWS V14.01,2013-10-11 07:06:00,
2013-10-11 03:11:00,59.9,58.5,29.81,East,81,0.0,0.0,95,0.00,,,0.00,0.00,VWS V14.01,2013-10-11 07:11:00,
2013-10-11 03:16:00,59.9,58.5,29.81,North,2,7.0,10.0,95,0.00,,,0.00,0.00,VWS V14.01,2013-10-11 07:16:00,
2013-10-11 03:21:00,59.9,58.5,29.81,North,351,0.0,6.0,95,0.00,,,0.00,0.00,VWS V14.01,2013-10-11 07:21:00,
2013-10-11 03:26:00,59.9,58.2,29.81,North,358,2.0,3.0,94,0.00,,,0.00,0.00,VWS V14.01,2013-10-11 07:26:00,
2013-10-11 03:31:00,59.8,58.1,29.81,NW,325,1.0,6.0,94,0.00,,,0.00,0.00,VWS V14.01,2013-10-11 07:31:00,
2013-10-11 03:36:00,59.8,58.1,29.81,North,8,0.0,0.0,94,0.00,,,0.00,0.00,VWS V14.01,2013-10-11 07:36:00,
2013-10-11 03:41:00,59.8,58.1,29.81,North,4,4.0,6.0,94,0.00,,,0.00,0.00,VWS V14.01,2013-10-11 07:41:00,
2013-10-11 03:46:00,59.8,58.1,29.81,NNE,15,4.0,4.0,94,0.00,,,0.00,0.00,VWS V14.01,2013-10-11 07:46:00,
2013-10-11 03:51:00,59.6,57.9,29.81,North,356,1.0,1.0,94,0.00,,,0.00,0.00,VWS V14.01,2013-10-11 07:51:00,
2013-10-11 03:56:00,59.6,58.2,29.81,North,356,0.0,0.0,95,0.00,,,0.00,0.00,VWS V14.01,2013-10-11 07:56:00,
2013-10-11 04:01:00,59.6,58.2,29.81,North,0,5.0,5.0,95,0.00,,,0.00,0.00,VWS V14.01,2013-10-11 08:01:00,
2013-10-11 04:06:00,59.6,58.2,29.81,NNW,329,0.0,3.0,95,0.00,,,0.00,0.00,VWS V14.01,2013-10-11 08:06:00,
2013-10-11 04:11:00,59.6,58.2,29.81,WNW,298,2.0,5.0,95,0.00,,,0.00,0.00,VWS V14.01,2013-10-11 08:11:00,
2013-10-11 04:16:00,59.6,58.2,29.81,NNE,15,0.0,2.0,95,0.00,,,0.00,0.00,VWS V14.01,2013-10-11 08:16:00,
2013-10-11 04:22:00,59.5,58.1,29.81,North,8,2.0,5.0,95,0.00,,,0.00,0.00,VWS V14.01,2013-10-11 08:22:00,
2013-10-11 04:27:00,59.5,58.1,29.81,NNW,338,0.0,0.0,95,0.00,,,0.00,0.00,VWS V14.01,2013-10-11 08:27:00,
2013-10-11 04:32:00,59.5,58.1,29.81,North,4,6.0,6.0,95,0.00,,,0.00,0.00,VWS V14.01,2013-10-11 08:32:00,
2013-10-11 04:37:00,59.5,58.1,29.81,NNE,26,3.0,6.0,95,0.00,,,0.00,0.00,VWS V14.01,2013-10-11 08:37:00,
2013-10-11 04:42:00,59.5,57.8,29.81,NNW,346,8.0,11.0,94,0.00,,,0.00,0.00,VWS V14.01,2013-10-11 08:42:00,
2013-10-11 04:47:00,59.5,57.8,29.81,North,0,6.0,6.0,94,0.00,,,0.00,0.00,VWS V14.01,2013-10-11 08:47:00,
2013-10-11 04:52:00,59.5,57.8,29.81,North,0,5.0,5.0,94,0.00,,,0.00,0.00,VWS V14.01,2013-10-11 08:52:00,
2013-10-11 04:57:00,59.5,57.8,29.81,NNW,344,0.0,0.0,94,0.00,,,0.00,0.00,VWS V14.01,2013-10-11 08:57:00,
2013-10-11 05:02:00,59.5,57.8,29.82,North,357,0.0,0.0,94,0.00,,,0.00,0.00,VWS V14.01,2013-10-11 09:02:00,
2013-10-11 05:07:00,59.5,57.8,29.82,North,358,0.0,0.0,94,0.00,,,0.00,0.00,VWS V14.01,2013-10-11 09:07:00,
2013-10-11 05:12:00,59.5,57.8,29.82,NW,319,0.0,5.0,94,0.00,,,0.00,0.00,VWS V14.01,2013-10-11 09:12:00,
2013-10-11 05:17:00,59.5,57.8,29.82,North,4,0.0,0.0,94,0.00,,,0.00,0.00,VWS V14.01,2013-10-11 09:17:00,
2013-10-11 05:22:00,59.5,57.8,29.82,North,358,2.0,5.0,94,0.00,,,0.00,0.00,VWS V14.01,2013-10-11 09:22:00,
2013-10-11 05:27:00,59.5,57.8,29.82,NNW,333,6.0,6.0,94,0.00,,,0.00,0.00,VWS V14.01,2013-10-11 09:27:00,
2013-10-11 05:33:00,59.5,57.8,29.82,NNW,343,3.0,5.0,94,0.00,,,0.00,0.00,VWS V14.01,2013-10-11 09:33:00,
2013-10-11 05:38:00,59.5,57.8,29.82,NNW,342,1.0,6.0,94,0.00,,,0.00,0.00,VWS V14.01,2013-10-11 09:38:00,
2013-10-11 05:43:00,59.5,57.8,29.82,North,6,0.0,5.0,94,0.00,,,0.00,0.00,VWS V14.01,2013-10-11 09:43:00,
2013-10-11 05:48:00,59.5,57.8,29.82,NNE,13,0.0,0.0,94,0.00,,,0.00,0.00,VWS V14.01,2013-10-11 09:48:00,
2013-10-11 05:53:00,59.5,57.8,29.82,NNE,23,5.0,7.0,94,0.00,,,0.00,0.00,VWS V14.01,2013-10-11 09:53:00,
2013-10-11 05:58:00,59.5,57.8,29.82,North,358,0.0,3.0,94,0.00,,,0.00,0.00,VWS V14.01,2013-10-11 09:58:00,
2013-10-11 06:03:00,59.5,57.8,29.83,North,358,3.0,3.0,94,0.00,,,0.00,0.00,VWS V14.01,2013-10-11 10:03:00,
2013-10-11 06:08:00,59.5,57.8,29.83,North,358,1.0,5.0,94,0.00,,,0.00,0.00,VWS V14.01,2013-10-11 10:08:00,
2013-10-11 06:13:00,59.5,57.8,29.83,North,4,5.0,5.0,94,0.00,,,0.00,0.00,VWS V14.01,2013-10-11 10:13:00,
2013-10-11 06:18:00,59.5,57.8,29.83,North,358,0.0,0.0,94,0.00,,,0.00,0.00,VWS V14.01,2013-10-11 10:18:00,
2013-10-11 06:23:00,59.5,57.8,29.83,North,0,3.0,4.0,94,0.00,,,0.00,0.00,VWS V14.01,2013-10-11 10:23:00,
2013-10-11 06:28:00,59.5,57.8,29.83,North,1,1.0,2.0,94,0.00,,,0.00,0.00,VWS V14.01,2013-10-11 10:28:00,
2013-10-11 06:33:00,59.5,57.8,29.84,North,4,2.0,2.0,94,0.00,,,0.00,0.00,VWS V14.01,2013-10-11 10:33:00,
2013-10-11 06:38:00,59.5,57.8,29.84,NNW,340,0.0,0.0,94,0.00,,,0.00,0.00,VWS V14.01,2013-10-11 10:38:00,
2013-10-11 06:43:00,59.5,57.8,29.84,NNW,342,0.0,0.0,94,0.00,,,0.00,0.00,VWS V14.01,2013-10-11 10:43:00,
2013-10-11 06:48:00,59.3,57.6,29.84,North,358,0.0,0.0,94,0.00,,,0.00,0.00,VWS V14.01,2013-10-11 10:48:00,
2013-10-11 06:53:00,59.3,57.6,29.84,NNW,338,0.0,0.0,94,0.00,,,0.00,0.00,VWS V14.01,2013-10-11 10:53:00,
2013-10-11 06:59:00,59.3,57.6,29.84,North,356,2.0,4.0,94,0.00,,,0.00,0.00,VWS V14.01,2013-10-11 10:59:00,
2013-10-11 07:04:00,59.3,57.6,29.84,NNW,337,1.0,2.0,94,0.00,,,0.00,0.00,VWS V14.01,2013-10-11 11:04:00,
2013-10-11 07:09:00,59.3,57.6,29.84,North,349,2.0,4.0,94,0.00,,,0.00,0.00,VWS V14.01,2013-10-11 11:09:00,
2013-10-11 07:14:00,59.3,57.6,29.84,NNW,328,3.0,3.0,94,0.00,,,0.00,0.00,VWS V14.01,2013-10-11 11:14:00,
2013-10-11 07:19:00,59.3,57.6,29.84,North,0,2.0,4.0,94,0.00,,,0.00,0.00,VWS V14.01,2013-10-11 11:19:00,
2013-10-11 07:24:00,59.3,57.6,29.84,North,0,0.0,0.0,94,0.00,,,0.00,5.00,VWS V14.01,2013-10-11 11:24:00,
2013-10-11 07:29:00,59.3,57.6,29.84,NNW,345,0.0,0.0,94,0.00,,,0.00,7.00,VWS V14.01,2013-10-11 11:29:00,
2013-10-11 07:34:00,59.5,57.8,29.84,North,358,4.0,5.0,94,0.00,,,0.00,7.00,VWS V14.01,2013-10-11 11:34:00,
2013-10-11 07:40:00,59.5,57.8,29.84,North,356,2.0,2.0,94,0.00,,,0.00,9.00,VWS V14.01,2013-10-11 11:40:00,
2013-10-11 07:45:00,59.5,57.8,29.84,North,358,0.0,0.0,94,0.00,,,0.00,9.00,VWS V14.01,2013-10-11 11:45:00,
2013-10-11 07:50:00,59.5,57.8,29.85,NNW,342,4.0,4.0,94,0.00,,,0.00,12.00,VWS V14.01,2013-10-11 11:50:00,
2013-10-11 07:55:00,59.5,57.8,29.85,NNW,340,3.0,6.0,94,0.00,,,0.00,14.00,VWS V14.01,2013-10-11 11:55:00,
2013-10-11 08:00:00,59.5,57.8,29.85,North,358,0.0,3.0,94,0.00,,,0.00,16.00,VWS V14.01,2013-10-11 12:00:00,
2013-10-11 08:05:00,59.5,57.8,29.85,NNW,347,0.0,2.0,94,0.00,,,0.00,19.00,VWS V14.01,2013-10-11 12:05:00,
2013-10-11 08:10:00,59.5,57.5,29.85,WNW,302,2.0,4.0,93,0.00,,,0.00,19.00,VWS V14.01,2013-10-11 12:10:00,
2013-10-11 08:15:00,59.5,57.5,29.85,North,0,0.0,0.0,93,0.00,,,0.00,23.00,VWS V14.01,2013-10-11 12:15:00,
2013-10-11 08:20:00,59.5,57.5,29.85,North,358,0.0,0.0,93,0.00,,,0.00,26.00,VWS V14.01,2013-10-11 12:20:00,
2013-10-11 08:25:00,59.6,57.6,29.85,North,350,0.0,0.0,93,0.00,,,0.00,33.00,VWS V14.01,2013-10-11 12:25:00,
2013-10-11 08:31:00,59.6,57.6,29.85,North,350,0.0,0.0,93,0.00,,,0.00,37.00,VWS V14.01,2013-10-11 12:31:00,
2013-10-11 08:36:00,59.6,57.6,29.85,North,6,3.0,4.0,93,0.00,,,0.00,42.00,VWS V14.01,2013-10-11 12:36:00,
2013-10-11 08:41:00,59.8,57.8,29.85,NNW,341,1.0,4.0,93,0.00,,,0.00,49.00,VWS V14.01,2013-10-11 12:41:00,
2013-10-11 08:46:00,59.8,57.8,29.85,North,349,2.0,5.0,93,0.00,,,0.00,56.00,VWS V14.01,2013-10-11 12:46:00,
2013-10-11 08:51:00,59.9,57.9,29.85,North,0,4.0,5.0,93,0.00,,,0.00,58.00,VWS V14.01,2013-10-11 12:51:00,
2013-10-11 08:56:00,60.1,58.1,29.85,NNW,347,2.0,5.0,93,0.00,,,0.00,67.00,VWS V14.01,2013-10-11 12:56:00,
2013-10-11 09:01:00,60.1,57.8,29.85,North,4,0.0,0.0,92,0.00,,,0.00,74.00,VWS V14.01,2013-10-11 13:01:00,
2013-10-11 09:06:00,60.2,57.9,29.85,North,349,0.0,3.0,92,0.00,,,0.00,86.00,VWS V14.01,2013-10-11 13:06:00,
2013-10-11 09:11:00,60.4,58.1,29.85,NNE,20,0.0,2.0,92,0.00,,,0.00,91.00,VWS V14.01,2013-10-11 13:11:00,
2013-10-11 09:16:00,60.5,58.2,29.85,NNW,345,0.0,2.0,92,0.00,,,0.00,91.00,VWS V14.01,2013-10-11 13:16:00,
2013-10-11 09:21:00,60.5,58.2,29.85,NNW,330,0.0,0.0,92,0.00,,,0.00,91.00,VWS V14.01,2013-10-11 13:21:00,
2013-10-11 09:26:00,60.7,58.4,29.85,NW,312,2.0,3.0,92,0.00,,,0.00,100.00,VWS V14.01,2013-10-11 13:26:00,
2013-10-11 09:32:00,60.9,58.3,29.85,North,5,0.0,4.0,91,0.00,,,0.00,105.00,VWS V14.01,2013-10-11 13:32:00,
2013-10-11 09:37:00,60.9,58.3,29.86,North,0,10.0,10.0,91,0.00,,,0.00,98.00,VWS V14.01,2013-10-11 13:37:00,
2013-10-11 09:42:00,60.9,58.0,29.86,NNW,331,3.0,4.0,90,0.00,,,0.00,105.00,VWS V14.01,2013-10-11 13:42:00,
2013-10-11 09:47:00,61.0,58.0,29.86,NNW,342,3.0,9.0,90,0.00,,,0.00,95.00,VWS V14.01,2013-10-11 13:47:00,
2013-10-11 09:52:00,61.2,58.2,29.86,NNE,32,4.0,7.0,90,0.00,,,0.00,116.00,VWS V14.01,2013-10-11 13:52:00,
2013-10-11 09:57:00,61.3,58.3,29.86,North,352,2.0,4.0,90,0.00,,,0.00,109.00,VWS V14.01,2013-10-11 13:57:00,
2013-10-11 10:02:00,61.3,58.0,29.86,NW,315,2.0,3.0,89,0.00,,,0.00,109.00,VWS V14.01,2013-10-11 14:02:00,
2013-10-11 10:07:00,61.5,58.2,29.86,North,0,6.0,6.0,89,0.00,,,0.00,125.00,VWS V14.01,2013-10-11 14:07:00,
2013-10-11 10:12:00,61.5,57.9,29.86,North,358,6.0,7.0,88,0.00,,,0.00,132.00,VWS V14.01,2013-10-11 14:12:00,
2013-10-11 10:17:00,61.5,57.9,29.86,NW,314,4.0,5.0,88,0.00,,,0.00,151.00,VWS V14.01,2013-10-11 14:17:00,
2013-10-11 10:22:00,61.6,58.0,29.86,North,0,7.0,10.0,88,0.00,,,0.00,148.00,VWS V14.01,2013-10-11 14:22:00,
2013-10-11 10:27:00,61.8,57.9,29.86,NW,313,2.0,6.0,87,0.00,,,0.00,134.00,VWS V14.01,2013-10-11 14:27:00,
2013-10-11 10:32:00,61.8,57.9,29.87,North,349,0.0,0.0,87,0.00,,,0.00,116.00,VWS V14.01,2013-10-11 14:32:00,
2013-10-11 10:37:00,62.0,58.1,29.87,NNE,30,2.0,6.0,87,0.00,,,0.00,127.00,VWS V14.01,2013-10-11 14:37:00,
2013-10-11 10:42:00,62.1,58.2,29.87,NNW,340,0.0,0.0,87,0.00,,,0.00,125.00,VWS V14.01,2013-10-11 14:42:00,
2013-10-11 10:47:00,62.1,57.9,29.87,North,358,3.0,3.0,86,0.00,,,0.00,114.00,VWS V14.01,2013-10-11 14:47:00,
2013-10-11 10:52:00,62.3,58.1,29.87,North,0,0.0,0.0,86,0.00,,,0.00,113.00,VWS V14.01,2013-10-11 14:52:00,
2013-10-11 10:57:00,62.3,58.1,29.87,NW,325,4.0,6.0,86,0.00,,,0.00,142.00,VWS V14.01,2013-10-11 14:57:00,
2013-10-11 11:02:00,62.3,58.4,29.87,NNW,347,2.0,3.0,87,0.00,,,0.00,134.00,VWS V14.01,2013-10-11 15:02:00,
2013-10-11 11:08:00,62.4,58.5,29.87,NNW,348,0.0,0.0,87,0.00,,,0.00,114.00,VWS V14.01,2013-10-11 15:08:00,
2013-10-11 11:12:00,62.4,58.5,29.87,North,358,4.0,4.0,87,0.00,,,0.00,109.00,VWS V14.01,2013-10-11 15:12:00,
2013-10-11 11:18:00,62.6,58.7,29.87,NNW,330,0.0,0.0,87,0.00,,,0.00,100.00,VWS V14.01,2013-10-11 15:18:00,
2013-10-11 11:23:00,62.6,58.7,29.87,North,358,0.0,2.0,87,0.00,,,0.00,93.00,VWS V14.01,2013-10-11 15:23:00,
2013-10-11 11:28:00,62.6,58.7,29.87,North,5,0.0,0.0,87,0.00,,,0.00,95.00,VWS V14.01,2013-10-11 15:28:00,
2013-10-11 11:33:00,62.6,58.7,29.87,North,351,0.0,0.0,87,0.00,,,0.00,77.00,VWS V14.01,2013-10-11 15:33:00,
2013-10-11 11:38:00,62.7,58.8,29.87,WNW,302,0.0,1.0,87,0.00,,,0.00,86.00,VWS V14.01,2013-10-11 15:38:00,
2013-10-11 11:43:00,62.7,58.8,29.87,NNW,330,2.0,4.0,87,0.00,,,0.00,84.00,VWS V14.01,2013-10-11 15:43:00,
2013-10-11 11:48:00,62.7,58.8,29.87,NNW,335,0.0,1.0,87,0.00,,,0.00,109.00,VWS V14.01,2013-10-11 15:48:00,
2013-10-11 11:54:00,62.7,59.1,29.87,North,358,4.0,6.0,88,0.00,,,0.00,102.00,VWS V14.01,2013-10-11 15:54:00,
2013-10-11 11:59:00,62.6,59.0,29.87,NNW,330,2.0,4.0,88,0.00,,,0.00,93.00,VWS V14.01,2013-10-11 15:59:00,
2013-10-11 12:05:00,62.6,59.0,29.87,North,0,5.0,7.0,88,0.00,,,0.00,100.00,VWS V14.01,2013-10-11 16:05:00,
2013-10-11 12:10:00,62.6,59.0,29.87,North,7,0.0,4.0,88,0.00,,,0.00,185.00,VWS V14.01,2013-10-11 16:10:00,
2013-10-11 12:15:00,62.9,59.3,29.87,WNW,297,2.0,6.0,88,0.00,,,0.00,141.00,VWS V14.01,2013-10-11 16:15:00,
2013-10-11 12:20:00,62.9,59.0,29.87,NNE,14,0.0,4.0,87,0.00,,,0.00,172.00,VWS V14.01,2013-10-11 16:20:00,
2013-10-11 12:25:00,62.9,58.7,29.87,North,0,3.0,5.0,86,0.00,,,0.00,199.00,VWS V14.01,2013-10-11 16:25:00,
2013-10-11 12:31:00,63.2,59.0,29.87,North,0,3.0,6.0,86,0.00,,,0.00,229.00,VWS V14.01,2013-10-11 16:31:00,
2013-10-11 12:36:00,63.4,58.8,29.87,NNW,345,12.0,14.0,85,0.00,,,0.00,304.00,VWS V14.01,2013-10-11 16:36:00,
2013-10-11 12:41:00,63.7,58.8,29.87,NNW,336,0.0,3.0,84,0.00,,,0.00,200.00,VWS V14.01,2013-10-11 16:41:00,
2013-10-11 12:46:00,63.9,59.0,29.87,NNE,30,0.0,0.0,84,0.00,,,0.00,195.00,VWS V14.01,2013-10-11 16:46:00,
2013-10-11 12:51:00,64.0,59.1,29.86,NNE,20,4.0,4.0,84,0.00,,,0.00,199.00,VWS V14.01,2013-10-11 16:51:00,
2013-10-11 12:56:00,64.0,59.1,29.86,North,0,2.0,8.0,84,0.00,,,0.00,146.00,VWS V14.01,2013-10-11 16:56:00,
2013-10-11 13:01:00,63.9,58.6,29.86,NNW,330,5.0,10.0,83,0.00,,,0.00,171.00,VWS V14.01,2013-10-11 17:01:00,
2013-10-11 13:06:00,63.9,58.6,29.86,North,0,6.0,9.0,83,0.00,,,0.00,141.00,VWS V14.01,2013-10-11 17:06:00,
2013-10-11 13:11:00,63.9,58.6,29.86,North,351,4.0,6.0,83,0.00,,,0.00,162.00,VWS V14.01,2013-10-11 17:11:00,
2013-10-11 13:16:00,63.9,58.6,29.86,NNE,20,2.0,4.0,83,0.00,,,0.00,197.00,VWS V14.01,2013-10-11 17:16:00,
2013-10-11 13:22:00,63.9,58.6,29.85,NW,307,0.0,0.0,83,0.00,,,0.00,181.00,VWS V14.01,2013-10-11 17:22:00,
2013-10-11 13:27:00,64.0,59.1,29.85,North,6,0.0,2.0,84,0.00,,,0.00,178.00,VWS V14.01,2013-10-11 17:27:00,
2013-10-11 13:32:00,64.2,59.3,29.85,North,358,5.0,6.0,84,0.00,,,0.00,183.00,VWS V14.01,2013-10-11 17:32:00,
2013-10-11 13:37:00,64.5,59.2,29.85,North,0,0.0,0.0,83,0.00,,,0.00,174.00,VWS V14.01,2013-10-11 17:37:00,
2013-10-11 13:42:00,64.5,59.2,29.85,NNE,12,4.0,4.0,83,0.00,,,0.00,248.00,VWS V14.01,2013-10-11 17:42:00,
2013-10-11 13:47:00,64.8,59.5,29.84,NNW,341,4.0,4.0,83,0.00,,,0.00,206.00,VWS V14.01,2013-10-11 17:47:00,
2013-10-11 13:52:00,65.0,59.4,29.84,North,355,0.0,2.0,82,0.00,,,0.00,158.00,VWS V14.01,2013-10-11 17:52:00,
2013-10-11 13:57:00,65.0,59.0,29.84,NE,35,5.0,10.0,81,0.00,,,0.00,169.00,VWS V14.01,2013-10-11 17:57:00,
2013-10-11 14:02:00,65.2,59.6,29.84,NNW,327,0.0,0.0,82,0.00,,,0.00,209.00,VWS V14.01,2013-10-11 18:02:00,
2013-10-11 14:07:00,65.2,59.2,29.84,North,0,10.0,13.0,81,0.00,,,0.00,183.00,VWS V14.01,2013-10-11 18:07:00,
2013-10-11 14:13:00,65.2,59.2,29.84,NNW,345,5.0,7.0,81,0.00,,,0.00,185.00,VWS V14.01,2013-10-11 18:13:00,
2013-10-11 14:18:00,65.2,59.2,29.83,NNE,31,8.0,8.0,81,0.00,,,0.00,292.00,VWS V14.01,2013-10-11 18:18:00,
2013-10-11 14:23:00,65.3,59.3,29.83,North,0,6.0,7.0,81,0.00,,,0.00,315.00,VWS V14.01,2013-10-11 18:23:00,
2013-10-11 14:28:00,65.6,59.6,29.83,North,356,0.0,3.0,81,0.00,,,0.00,308.00,VWS V14.01,2013-10-11 18:28:00,
2013-10-11 14:33:00,66.0,59.7,29.83,NNE,20,7.0,7.0,80,0.00,,,0.00,388.00,VWS V14.01,2013-10-11 18:33:00,
2013-10-11 14:38:00,66.3,60.0,29.83,NNW,342,3.0,6.0,80,0.00,,,0.00,260.00,VWS V14.01,2013-10-11 18:38:00,
2013-10-11 14:43:00,66.4,59.7,29.83,WNW,288,4.0,6.0,79,0.00,,,0.00,397.00,VWS V14.01,2013-10-11 18:43:00,
2013-10-11 14:48:00,66.8,59.7,29.83,NNW,347,7.0,11.0,78,0.00,,,0.00,397.00,VWS V14.01,2013-10-11 18:48:00,
2013-10-11 14:53:00,66.8,59.7,29.83,NW,326,0.0,7.0,78,0.00,,,0.00,299.00,VWS V14.01,2013-10-11 18:53:00,
2013-10-11 14:58:00,66.9,59.8,29.83,NNW,330,4.0,7.0,78,0.00,,,0.00,230.00,VWS V14.01,2013-10-11 18:58:00,
2013-10-11 15:04:00,66.9,59.5,29.83,North,0,0.0,4.0,77,0.00,,,0.00,195.00,VWS V14.01,2013-10-11 19:04:00,
2013-10-11 15:09:00,66.6,59.5,29.83,NNW,345,2.0,2.0,78,0.00,,,0.00,111.00,VWS V14.01,2013-10-11 19:09:00,
2013-10-11 15:14:00,66.4,59.7,29.83,North,0,0.0,0.0,79,0.00,,,0.00,90.00,VWS V14.01,2013-10-11 19:14:00,
2013-10-11 15:20:00,66.3,59.6,29.83,NNW,336,0.0,4.0,79,0.00,,,0.00,83.00,VWS V14.01,2013-10-11 19:20:00,
2013-10-11 15:25:00,66.1,59.8,29.83,NW,312,3.0,5.0,80,0.00,,,0.00,118.00,VWS V14.01,2013-10-11 19:25:00,
2013-10-11 15:30:00,66.0,59.7,29.83,North,349,0.0,0.0,80,0.00,,,0.00,114.00,VWS V14.01,2013-10-11 19:30:00,
2013-10-11 15:35:00,65.8,59.5,29.82,NW,308,3.0,5.0,80,0.00,,,0.00,167.00,VWS V14.01,2013-10-11 19:35:00,
2013-10-11 15:40:00,65.8,59.8,29.82,NW,314,0.0,0.0,81,0.00,,,0.00,151.00,VWS V14.01,2013-10-11 19:40:00,
2013-10-11 15:46:00,66.0,60.0,29.82,NW,326,4.0,6.0,81,0.00,,,0.00,118.00,VWS V14.01,2013-10-11 19:46:00,
2013-10-11 15:51:00,66.0,59.7,29.82,NW,323,2.0,4.0,80,0.00,,,0.00,98.00,VWS V14.01,2013-10-11 19:51:00,
2013-10-11 15:57:00,66.0,59.7,29.82,North,0,7.0,7.0,80,0.00,,,0.00,100.00,VWS V14.01,2013-10-11 19:57:00,
2013-10-11 16:02:00,65.8,59.8,29.82,North,1,0.0,0.0,81,0.00,,,0.00,91.00,VWS V14.01,2013-10-11 20:02:00,
2013-10-11 16:07:00,66.0,60.0,29.83,NNW,328,3.0,4.0,81,0.00,,,0.00,146.00,VWS V14.01,2013-10-11 20:07:00,
2013-10-11 16:12:00,66.0,60.0,29.83,North,356,0.0,0.0,81,0.00,,,0.00,220.00,VWS V14.01,2013-10-11 20:12:00,
2013-10-11 16:17:00,66.1,60.1,29.83,North,354,4.0,4.0,81,0.00,,,0.00,155.00,VWS V14.01,2013-10-11 20:17:00,
2013-10-11 16:22:00,66.3,60.0,29.83,North,350,6.0,6.0,80,0.00,,,0.00,130.00,VWS V14.01,2013-10-11 20:22:00,
2013-10-11 16:27:00,66.3,59.6,29.83,NNW,328,3.0,4.0,79,0.00,,,0.00,79.00,VWS V14.01,2013-10-11 20:27:00,
2013-10-11 16:33:00,66.3,60.0,29.82,North,0,0.0,0.0,80,0.00,,,0.00,72.00,VWS V14.01,2013-10-11 20:33:00,
2013-10-11 16:47:00,66.3,60.0,29.82,North,358,4.0,4.0,80,0.00,,,0.00,53.00,VWS V14.01,2013-10-11 20:47:00,
2013-10-11 16:52:00,66.1,59.8,29.83,North,1,0.0,0.0,80,0.00,,,0.00,83.00,VWS V14.01,2013-10-11 20:52:00,
2013-10-11 16:57:00,66.1,59.8,29.83,North,358,0.0,3.0,80,0.00,,,0.00,62.00,VWS V14.01,2013-10-11 20:57:00,
2013-10-11 17:02:00,66.3,60.0,29.83,North,358,0.0,0.0,80,0.00,,,0.00,62.00,VWS V14.01,2013-10-11 21:02:00,
2013-10-11 17:07:00,66.3,60.0,29.83,North,358,3.0,3.0,80,0.00,,,0.00,46.00,VWS V14.01,2013-10-11 21:07:00,
2013-10-11 17:12:00,66.3,60.0,29.83,NNW,346,0.0,0.0,80,0.00,,,0.00,42.00,VWS V14.01,2013-10-11 21:12:00,
2013-10-11 17:17:00,66.3,60.0,29.83,North,358,0.0,2.0,80,0.00,,,0.00,69.00,VWS V14.01,2013-10-11 21:17:00,
2013-10-11 17:22:00,66.1,60.1,29.83,North,358,0.0,0.0,81,0.00,,,0.00,70.00,VWS V14.01,2013-10-11 21:22:00,
2013-10-11 17:27:00,66.3,60.3,29.83,North,350,0.0,0.0,81,0.00,,,0.00,63.00,VWS V14.01,2013-10-11 21:27:00,
2013-10-11 17:32:00,66.3,60.3,29.83,North,356,0.0,0.0,81,0.00,,,0.00,46.00,VWS V14.01,2013-10-11 21:32:00,
2013-10-11 17:37:00,66.3,60.3,29.83,North,356,0.0,1.0,81,0.00,,,0.00,74.00,VWS V14.01,2013-10-11 21:37:00,
2013-10-11 17:42:00,66.3,60.3,29.83,North,356,0.0,0.0,81,0.00,,,0.00,67.00,VWS V14.01,2013-10-11 21:42:00,
2013-10-11 17:47:00,66.3,60.3,29.83,North,356,0.0,0.0,81,0.00,,,0.00,44.00,VWS V14.01,2013-10-11 21:47:00,
2013-10-11 17:52:00,66.3,60.3,29.83,North,356,0.0,0.0,81,0.00,,,0.00,35.00,VWS V14.01,2013-10-11 21:52:00,
2013-10-11 17:57:00,66.3,60.3,29.83,North,354,0.0,0.0,81,0.00,,,0.00,39.00,VWS V14.01,2013-10-11 21:57:00,
2013-10-11 18:02:00,66.1,60.1,29.83,North,354,0.0,0.0,81,0.00,,,0.00,30.00,VWS V14.01,2013-10-11 22:02:00,
2013-10-11 18:07:00,66.1,60.1,29.83,North,354,0.0,0.0,81,0.00,,,0.00,21.00,VWS V14.01,2013-10-11 22:07:00,
2013-10-11 18:12:00,66.0,60.0,29.83,North,354,0.0,0.0,81,0.00,,,0.00,14.00,VWS V14.01,2013-10-11 22:12:00,
2013-10-11 18:17:00,66.0,60.3,29.83,North,354,0.0,0.0,82,0.00,,,0.00,18.00,VWS V14.01,2013-10-11 22:17:00,
2013-10-11 18:22:00,65.8,60.2,29.83,North,354,0.0,0.0,82,0.00,,,0.00,18.00,VWS V14.01,2013-10-11 22:22:00,
2013-10-11 18:27:00,65.6,60.0,29.83,North,354,0.0,0.0,82,0.00,,,0.00,11.00,VWS V14.01,2013-10-11 22:27:00,
2013-10-11 18:32:00,65.6,60.3,29.83,North,354,0.0,0.0,83,0.00,,,0.00,5.00,VWS V14.01,2013-10-11 22:32:00,
2013-10-11 18:37:00,65.6,60.6,29.84,North,354,0.0,0.0,84,0.00,,,0.00,0.00,VWS V14.01,2013-10-11 22:37:00,
2013-10-11 18:42:00,65.5,60.5,29.84,North,354,0.0,0.0,84,0.00,,,0.00,0.00,VWS V14.01,2013-10-11 22:42:00,
2013-10-11 18:47:00,65.5,60.5,29.84,North,354,0.0,0.0,84,0.00,,,0.00,0.00,VWS V14.01,2013-10-11 22:47:00,
2013-10-11 18:52:00,65.3,60.3,29.84,North,354,0.0,0.0,84,0.00,,,0.00,0.00,VWS V14.01,2013-10-11 22:52:00,
2013-10-11 18:57:00,65.2,60.2,29.84,North,354,0.0,0.0,84,0.00,,,0.00,0.00,VWS V14.01,2013-10-11 22:57:00,
2013-10-11 19:02:00,65.0,60.0,29.84,North,354,0.0,0.0,84,0.00,,,0.00,0.00,VWS V14.01,2013-10-11 23:02:00,
2013-10-11 19:06:00,65.0,60.4,29.84,North,354,0.0,0.0,85,0.00,,,0.00,0.00,VWS V14.01,2013-10-11 23:06:00,
2013-10-11 19:11:00,64.8,60.2,29.84,North,354,0.0,0.0,85,0.00,,,0.00,0.00,VWS V14.01,2013-10-11 23:11:00,
2013-10-11 19:16:00,64.7,60.4,29.84,North,354,0.0,0.0,86,0.00,,,0.00,0.00,VWS V14.01,2013-10-11 23:16:00,
2013-10-11 19:21:00,64.5,60.2,29.84,North,354,0.0,0.0,86,0.00,,,0.00,0.00,VWS V14.01,2013-10-11 23:21:00,
2013-10-11 19:26:00,64.3,60.3,29.84,North,354,0.0,0.0,87,0.00,,,0.00,0.00,VWS V14.01,2013-10-11 23:26:00,
2013-10-11 19:31:00,64.3,60.3,29.84,North,354,0.0,0.0,87,0.00,,,0.00,0.00,VWS V14.01,2013-10-11 23:31:00,
2013-10-11 19:36:00,64.2,60.6,29.85,North,354,0.0,0.0,88,0.00,,,0.00,0.00,VWS V14.01,2013-10-11 23:36:00,
2013-10-11 19:41:00,64.2,60.6,29.85,North,354,0.0,0.0,88,0.00,,,0.00,0.00,VWS V14.01,2013-10-11 23:41:00,
2013-10-11 19:46:00,64.2,60.6,29.85,North,354,0.0,0.0,88,0.00,,,0.00,0.00,VWS V14.01,2013-10-11 23:46:00,
2013-10-11 19:51:00,64.0,60.4,29.85,North,354,0.0,0.0,88,0.00,,,0.00,0.00,VWS V14.01,2013-10-11 23:51:00,
2013-10-11 19:56:00,64.0,60.7,29.85,North,354,0.0,0.0,89,0.00,,,0.00,0.00,VWS V14.01,2013-10-11 23:56:00,
2013-10-11 20:01:00,64.0,60.7,29.85,North,354,0.0,0.0,89,0.00,,,0.00,0.00,VWS V14.01,2013-10-12 00:01:00,
2013-10-11 20:06:00,64.0,60.7,29.85,North,354,0.0,0.0,89,0.00,,,0.00,0.00,VWS V14.01,2013-10-12 00:06:00,
2013-10-11 20:11:00,63.9,60.9,29.85,North,354,0.0,0.0,90,0.00,,,0.00,0.00,VWS V14.01,2013-10-12 00:11:00,
2013-10-11 20:16:00,63.9,60.9,29.85,North,354,0.0,0.0,90,0.00,,,0.00,0.00,VWS V14.01,2013-10-12 00:16:00,
2013-10-11 20:21:00,63.9,60.9,29.86,North,354,0.0,0.0,90,0.00,,,0.00,0.00,VWS V14.01,2013-10-12 00:21:00,
2013-10-11 20:26:00,63.9,60.9,29.86,North,354,0.0,0.0,90,0.00,,,0.00,0.00,VWS V14.01,2013-10-12 00:26:00,
2013-10-11 20:31:00,63.9,60.9,29.86,North,354,0.0,0.0,90,0.00,,,0.00,0.00,VWS V14.01,2013-10-12 00:31:00,
2013-10-11 20:36:00,63.7,61.0,29.86,North,354,0.0,0.0,91,0.00,,,0.00,0.00,VWS V14.01,2013-10-12 00:36:00,
2013-10-11 20:41:00,63.7,61.0,29.86,North,354,0.0,1.0,91,0.00,,,0.00,0.00,VWS V14.01,2013-10-12 00:41:00,
2013-10-11 20:46:00,63.7,60.7,29.86,North,354,0.0,0.0,90,0.00,,,0.00,0.00,VWS V14.01,2013-10-12 00:46:00,
2013-10-11 20:51:00,63.7,60.7,29.87,North,354,0.0,0.0,90,0.00,,,0.00,0.00,VWS V14.01,2013-10-12 00:51:00,
2013-10-11 20:56:00,63.9,60.9,29.87,North,354,0.0,0.0,90,0.00,,,0.00,0.00,VWS V14.01,2013-10-12 00:56:00,
2013-10-11 21:01:00,63.9,60.6,29.87,North,354,0.0,0.0,89,0.00,,,0.00,0.00,VWS V14.01,2013-10-12 01:01:00,
2013-10-11 21:06:00,63.9,60.6,29.87,North,354,0.0,0.0,89,0.00,,,0.00,0.00,VWS V14.01,2013-10-12 01:06:00,
2013-10-11 21:11:00,63.7,60.4,29.87,North,354,0.0,0.0,89,0.00,,,0.00,0.00,VWS V14.01,2013-10-12 01:11:00,
2013-10-11 21:16:00,63.7,60.4,29.87,North,354,0.0,0.0,89,0.00,,,0.00,0.00,VWS V14.01,2013-10-12 01:16:00,
2013-10-11 21:21:00,63.5,60.2,29.87,North,354,2.0,2.0,89,0.00,,,0.00,0.00,VWS V14.01,2013-10-12 01:21:00,
2013-10-11 21:26:00,63.4,60.1,29.87,North,352,0.0,0.0,89,0.00,,,0.00,0.00,VWS V14.01,2013-10-12 01:26:00,
2013-10-11 21:31:00,63.4,60.1,29.87,North,356,2.0,2.0,89,0.00,,,0.00,0.00,VWS V14.01,2013-10-12 01:31:00,
2013-10-11 21:36:00,63.2,59.9,29.87,North,10,0.0,0.0,89,0.00,,,0.00,0.00,VWS V14.01,2013-10-12 01:36:00,
2013-10-11 21:41:00,63.1,59.8,29.87,North,10,0.0,0.0,89,0.00,,,0.00,0.00,VWS V14.01,2013-10-12 01:41:00,
2013-10-11 21:46:00,62.9,59.6,29.87,North,10,0.0,0.0,89,0.00,,,0.00,0.00,VWS V14.01,2013-10-12 01:46:00,
2013-10-11 21:51:00,62.7,59.4,29.87,North,10,0.0,0.0,89,0.00,,,0.00,0.00,VWS V14.01,2013-10-12 01:51:00,
2013-10-11 21:56:00,62.6,59.3,29.87,North,10,0.0,0.0,89,0.00,,,0.00,0.00,VWS V14.01,2013-10-12 01:56:00,
2013-10-11 22:01:00,62.4,59.4,29.87,North,10,0.0,0.0,90,0.00,,,0.00,0.00,VWS V14.01,2013-10-12 02:01:00,
2013-10-11 22:06:00,62.3,59.3,29.87,North,10,2.0,2.0,90,0.00,,,0.00,0.00,VWS V14.01,2013-10-12 02:06:00,
2013-10-11 22:11:00,62.1,59.1,29.87,North,10,0.0,0.0,90,0.00,,,0.00,0.00,VWS V14.01,2013-10-12 02:11:00,
2013-10-11 22:16:00,62.1,59.5,29.87,North,10,0.0,0.0,91,0.00,,,0.00,0.00,VWS V14.01,2013-10-12 02:16:00,
2013-10-11 22:21:00,62.0,59.3,29.88,North,10,0.0,0.0,91,0.00,,,0.00,0.00,VWS V14.01,2013-10-12 02:21:00,
2013-10-11 22:26:00,62.0,59.3,29.88,North,10,0.0,0.0,91,0.00,,,0.00,0.00,VWS V14.01,2013-10-12 02:26:00,
2013-10-11 22:31:00,61.8,59.2,29.88,North,10,0.0,0.0,91,0.00,,,0.00,0.00,VWS V14.01,2013-10-12 02:31:00,
2013-10-11 22:36:00,61.6,59.0,29.88,North,10,0.0,0.0,91,0.00,,,0.00,0.00,VWS V14.01,2013-10-12 02:36:00,
2013-10-11 22:41:00,61.5,59.2,29.88,North,10,0.0,0.0,92,0.00,,,0.00,0.00,VWS V14.01,2013-10-12 02:41:00,
2013-10-11 22:46:00,61.3,59.0,29.88,North,10,0.0,0.0,92,0.00,,,0.00,0.00,VWS V14.01,2013-10-12 02:46:00,
2013-10-11 22:51:00,61.3,59.0,29.88,North,10,0.0,0.0,92,0.00,,,0.00,0.00,VWS V14.01,2013-10-12 02:51:00,
2013-10-11 22:56:00,61.3,59.0,29.88,North,10,0.0,0.0,92,0.00,,,0.00,0.00,VWS V14.01,2013-10-12 02:56:00,
2013-10-11 23:01:00,61.2,58.9,29.88,North,10,0.0,0.0,92,0.00,,,0.00,0.00,VWS V14.01,2013-10-12 03:01:00,
2013-10-11 23:06:00,61.0,58.7,29.88,North,10,0.0,0.0,92,0.00,,,0.00,0.00,VWS V14.01,2013-10-12 03:06:00,
2013-10-11 23:11:00,61.0,58.7,29.88,North,10,0.0,0.0,92,0.00,,,0.00,0.00,VWS V14.01,2013-10-12 03:11:00,
2013-10-11 23:16:00,61.0,58.7,29.88,North,10,0.0,0.0,92,0.00,,,0.00,0.00,VWS V14.01,2013-10-12 03:16:00,
2013-10-11 23:21:00,60.9,58.9,29.87,North,10,0.0,0.0,93,0.00,,,0.00,0.00,VWS V14.01,2013-10-12 03:21:00,
2013-10-11 23:26:00,61.0,59.0,29.87,North,10,0.0,0.0,93,0.00,,,0.00,0.00,VWS V14.01,2013-10-12 03:26:00,
2013-10-11 23:31:00,61.2,59.2,29.87,North,10,0.0,0.0,93,0.00,,,0.00,0.00,VWS V14.01,2013-10-12 03:31:00,
2013-10-11 23:36:00,61.3,59.3,29.87,North,10,1.0,2.0,93,0.00,,,0.00,0.00,VWS V14.01,2013-10-12 03:36:00,
2013-10-11 23:41:00,61.5,59.5,29.87,North,10,0.0,0.0,93,0.00,,,0.00,0.00,VWS V14.01,2013-10-12 03:41:00,
2013-10-11 23:46:00,61.5,59.5,29.87,North,10,0.0,0.0,93,0.00,,,0.00,0.00,VWS V14.01,2013-10-12 03:46:00,
2013-10-11 23:51:00,61.6,59.6,29.87,North,10,0.0,0.0,93,0.00,,,0.00,0.00,VWS V14.01,2013-10-12 03:51:00,
2013-10-11 23:56:00,61.6,59.6,29.87,North,10,0.0,0.0,93,0.00,,,0.00,0.00,VWS V14.01,2013-10-12 03:56:00,